Time;durP1;ratioP1;P1;durP2;ratioP2;P2;SDS_P1;SDS_P2;PMS_P1;PMS_P2;Temp;Humidity;BMP_temperature;BMP_pressure;BME280_temperature;BME280_humidity;BME280_pressure;Samples;Min_cycle;Max_cycle;Signal;HPM_P1;HPM_P2
2022/10/26 00:00:07;;;;;;;0.50;0.50;;;;;;;11.68;81.17;96905.78;29394;204;64005;-58
2022/10/26 00:00:38;;;;;;;0.40;0.40;;;;;;;11.69;81.18;96906.59;29395;212;63009;-56
2022/10/26 00:01:12;;;;;;;0.50;0.50;;;;;;;11.70;81.14;96902.75;29395;205;63005;-58
2022/10/26 00:01:44;;;;;;;0.50;0.50;;;;;;;11.70;81.37;96908.19;29395;235;63009;-57
2022/10/26 00:02:15;;;;;;;0.40;0.40;;;;;;;11.69;81.01;96910.12;29395;197;63005;-56
2022/10/26 00:02:46;;;;;;;0.40;0.40;;;;;;;11.68;81.33;96905.78;29395;236;63009;-58
2022/10/26 00:03:20;;;;;;;0.50;0.50;;;;;;;11.68;81.43;96911.22;29395;209;63011;-56
2022/10/26 00:03:54;;;;;;;0.50;0.50;;;;;;;11.66;81.57;96910.72;29395;209;63009;-56
2022/10/26 00:04:28;;;;;;;0.50;0.50;;;;;;;11.65;81.54;96911.00;29394;216;64009;-56
2022/10/26 00:05:00;;;;;;;0.40;0.40;;;;;;;11.65;82.02;96911.00;29395;241;63009;-63
2022/10/26 00:05:34;;;;;;;0.40;0.40;;;;;;;11.64;82.09;96914.81;29395;235;63004;-56
2022/10/26 00:06:12;;;;;;;0.50;0.50;;;;;;;11.63;82.32;96914.03;29395;206;63016;-57
2022/10/26 00:06:44;;;;;;;0.50;0.50;;;;;;;11.63;82.17;96913.22;29395;200;63005;-57
2022/10/26 00:07:15;;;;;;;0.43;0.43;;;;;;;11.62;82.02;96912.41;29395;306;63009;-57
2022/10/26 00:07:47;;;;;;;0.50;0.50;;;;;;;11.63;82.12;96919.47;29394;250;64009;-57
2022/10/26 00:08:18;;;;;;;0.43;0.43;;;;;;;11.64;82.16;96914.81;29395;258;63009;-56
2022/10/26 00:08:50;;;;;;;0.43;0.43;;;;;;;11.64;82.04;96915.63;29395;277;63005;-57
2022/10/26 00:09:22;;;;;;;0.50;0.50;;;;;;;11.65;82.42;96911.00;29395;207;63014;-57
2022/10/26 00:09:54;;;;;;;0.50;0.50;;;;;;;11.65;82.21;96917.25;29395;204;63005;-57
2022/10/26 00:10:26;;;;;;;0.50;0.50;;;;;;;11.66;81.99;96915.34;29395;202;63009;-57
2022/10/26 00:10:57;;;;;;;0.50;0.50;;;;;;;11.65;81.90;96911.00;29395;237;63004;-57
2022/10/26 00:11:28;;;;;;;0.40;0.40;;;;;;;11.65;81.86;96916.44;29395;331;63009;-57
2022/10/26 00:12:00;;;;;;;0.50;0.50;;;;;;;11.64;81.96;96914.81;29394;235;64009;-57
2022/10/26 00:12:31;;;;;;;0.40;0.40;;;;;;;11.64;81.62;96914.81;29395;220;63009;-57
2022/10/26 00:13:04;;;;;;;0.50;0.50;;;;;;;11.64;81.98;96918.34;29395;258;63004;-57
2022/10/26 00:13:36;;;;;;;0.50;0.50;;;;;;;11.63;81.72;96914.03;29395;202;63008;-58
2022/10/26 00:14:07;;;;;;;0.50;0.50;;;;;;;11.63;81.92;96918.66;29395;198;63005;-57
2022/10/26 00:14:39;;;;;;;0.40;0.40;;;;;;;11.63;81.90;96913.22;29395;361;63009;-56
2022/10/26 00:15:10;;;;;;;0.50;0.50;;;;;;;11.63;81.66;96911.31;29395;228;63005;-57
2022/10/26 00:15:43;;;;;;;0.50;0.50;;;;;;;11.62;82.03;96911.59;29395;234;63009;-57
2022/10/26 00:16:25;;;;;;;0.50;0.50;;;;;;;11.63;81.84;96921.37;29395;202;63005;-62
2022/10/26 00:16:56;;;;;;;0.50;0.50;;;;;;;11.61;82.12;96912.72;29394;204;64013;-57
2022/10/26 00:17:28;;;;;;;0.50;0.50;;;;;;;11.61;81.96;96916.22;29394;217;64009;-66
2022/10/26 00:17:59;;;;;;;0.50;0.50;;;;;;;11.62;81.83;96923.28;29395;222;63009;-57
2022/10/26 00:18:30;;;;;;;0.50;0.50;;;;;;;11.63;81.75;96913.22;29395;197;63004;-57
2022/10/26 00:19:01;;;;;;;0.50;0.50;;;;;;;11.62;81.95;96914.31;29395;218;63009;-57
2022/10/26 00:19:34;;;;;;;0.50;0.50;;;;;;;11.62;81.76;96914.31;29395;234;63004;-56
2022/10/26 00:20:06;;;;;;;0.50;0.50;;;;;;;11.62;82.09;96912.41;29395;206;63016;-58
2022/10/26 00:20:37;;;;;;;0.50;0.50;;;;;;;11.62;81.92;96911.59;29395;199;63004;-57
2022/10/26 00:21:10;;;;;;;0.50;0.50;;;;;;;11.63;81.80;96907.78;29395;269;63008;-57
2022/10/26 00:21:41;;;;;;;0.50;0.50;;;;;;;11.62;81.65;96911.59;29395;239;63009;-59
2022/10/26 00:22:12;;;;;;;0.50;0.50;;;;;;;11.63;81.74;96913.22;29395;202;63009;-56
2022/10/26 00:22:44;;;;;;;0.50;0.50;;;;;;;11.63;81.74;96910.50;29394;220;64009;-56
2022/10/26 00:23:15;;;;;;;0.40;0.40;;;;;;;11.62;81.82;96914.31;29395;220;63009;-58
2022/10/26 00:23:47;;;;;;;0.50;0.50;;;;;;;11.63;81.67;96914.03;29395;274;63011;-57
2022/10/26 00:24:18;;;;;;;0.50;0.50;;;;;;;11.63;81.74;96907.78;29395;223;63009;-64
2022/10/26 00:24:49;;;;;;;0.40;0.40;;;;;;;11.64;81.82;96910.19;29395;202;63005;-57
2022/10/26 00:25:21;;;;;;;0.50;0.50;;;;;;;11.65;81.80;96913.72;29395;246;63018;-57
2022/10/26 00:25:54;;;;;;;0.50;0.50;;;;;;;11.67;81.51;96909.59;29395;240;63004;-57
2022/10/26 00:26:26;;;;;;;0.50;0.50;;;;;;;11.67;81.44;96911.50;29395;227;63009;-58
2022/10/26 00:26:57;;;;;;;0.50;0.50;;;;;;;11.67;81.69;96911.50;29395;202;63004;-57
2022/10/26 00:27:28;;;;;;;0.50;0.50;;;;;;;11.65;81.66;96906.37;29395;208;63008;-57
2022/10/26 00:27:59;;;;;;;0.43;0.43;;;;;;;11.66;81.58;96907.19;29394;288;64008;-57
2022/10/26 00:28:31;;;;;;;0.40;0.40;;;;;;;11.66;81.58;96915.34;29395;198;63009;-57
2022/10/26 00:29:03;;;;;;;0.50;0.50;;;;;;;11.68;81.48;96904.97;29395;269;63005;-58
2022/10/26 00:29:34;;;;;;;0.50;0.50;;;;;;;11.69;81.56;96906.59;29395;209;63009;-57
2022/10/26 00:30:07;;;;;;;0.70;0.70;;;;;;;11.69;81.75;96901.97;29395;243;63005;-57
2022/10/26 00:30:39;;;;;;;0.50;0.50;;;;;;;11.69;81.54;96907.41;29395;240;63009;-57
2022/10/26 00:31:15;;;;;;;0.50;0.50;;;;;;;11.68;81.57;96908.50;29395;249;63005;-57
2022/10/26 00:31:46;;;;;;;0.50;0.50;;;;;;;11.68;81.54;96899.53;29395;216;63009;-56
2022/10/26 00:32:18;;;;;;;0.50;0.50;;;;;;;11.69;81.68;96909.31;29395;242;63005;-58
2022/10/26 00:32:49;;;;;;;0.50;0.50;;;;;;;11.69;81.61;96903.88;29395;317;63009;-63
2022/10/26 00:33:21;;;;;;;0.50;0.50;;;;;;;11.69;81.57;96906.59;29394;198;64009;-57
2022/10/26 00:33:56;;;;;;;0.40;0.40;;;;;;;11.73;81.90;96911.12;29395;315;63009;-57
2022/10/26 00:34:27;;;;;;;0.43;0.43;;;;;;;11.74;81.77;96915.47;29395;258;63009;-57
2022/10/26 00:35:00;;;;;;;0.50;0.50;;;;;;;11.73;81.64;96902.97;29395;345;63008;-58
2022/10/26 00:35:34;;;;;;;0.50;0.50;;;;;;;11.73;81.65;96902.16;29395;245;63004;-57
2022/10/26 00:36:08;;;;;;;0.50;0.50;;;;;;;11.73;81.69;96907.59;29395;227;63009;-57
2022/10/26 00:36:40;;;;;;;0.50;0.50;;;;;;;11.77;81.61;96902.41;29395;273;63004;-57
2022/10/26 00:37:11;;;;;;;0.45;0.45;;;;;;;11.75;81.40;96903.47;29394;243;64014;-57
2022/10/26 00:37:46;;;;;;;0.50;0.50;;;;;;;11.77;81.32;96908.66;29395;207;63007;-57
2022/10/26 00:38:18;;;;;;;0.50;0.50;;;;;;;11.76;81.37;96907.00;29395;221;63009;-56
2022/10/26 00:38:51;;;;;;;0.50;0.50;;;;;;;11.78;81.56;96904.81;29395;202;63005;-57
2022/10/26 00:39:22;;;;;;;0.50;0.50;;;;;;;11.78;81.26;96910.28;29395;215;63009;-57
2022/10/26 00:39:54;;;;;;;0.50;0.50;;;;;;;11.79;81.41;96911.03;29395;222;63005;-57
2022/10/26 00:40:28;;;;;;;0.50;0.50;;;;;;;11.79;81.69;96911.84;29395;245;63009;-56
2022/10/26 00:40:59;;;;;;;0.50;0.50;;;;;;;11.77;81.44;96911.38;29395;315;63004;-57
2022/10/26 00:41:33;;;;;;;0.40;0.40;;;;;;;11.78;81.54;96910.28;29395;225;63009;-56
2022/10/26 00:42:05;;;;;;;0.50;0.50;;;;;;;11.77;81.42;96916.81;29394;219;64009;-56
2022/10/26 00:42:36;;;;;;;0.50;0.50;;;;;;;11.77;81.63;96913.28;29395;212;63008;-57
2022/10/26 00:43:39;;;;;;;0.45;0.45;;;;;;;11.76;81.47;96907.00;29395;196;63004;-57
2022/10/26 00:45:03;;;;;;;0.50;0.50;;;;;;;11.77;81.83;96911.38;29395;216;63013;-57
2022/10/26 00:45:35;;;;;;;0.50;0.50;;;;;;;11.78;81.36;96915.69;29395;233;63009;-57
2022/10/26 00:46:12;;;;;;;0.50;0.50;;;;;;;11.80;81.48;96908.03;29395;198;63005;-65
2022/10/26 00:46:47;;;;;;;0.50;0.50;;;;;;;11.82;81.28;96910.44;29395;204;63009;-57
2022/10/26 00:47:28;;;;;;;0.50;0.50;;;;;;;11.83;81.20;96915.59;29394;348;64009;-56
2022/10/26 00:48:11;;;;;;;0.50;0.50;;;;;;;11.82;81.28;96910.44;29395;196;63009;-57
2022/10/26 00:48:48;;;;;;;0.50;0.50;;;;;;;11.82;81.38;96915.88;29395;242;63004;-57
2022/10/26 00:49:20;;;;;;;0.50;0.50;;;;;;;11.81;81.23;96914.28;29395;218;63009;-57
2022/10/26 00:49:54;;;;;;;0.50;0.50;;;;;;;11.79;81.68;96909.13;29395;225;63004;-64
2022/10/26 00:50:38;;;;;;;0.45;0.45;;;;;;;11.78;81.73;96915.69;29395;243;63008;-57
2022/10/26 00:51:17;;;;;;;0.50;0.50;;;;;;;11.80;81.80;96910.75;29395;214;63005;-57
2022/10/26 00:51:52;;;;;;;0.40;0.40;;;;;;;11.84;81.40;96914.47;29395;215;63009;-57
2022/10/26 00:52:28;;;;;;;0.50;0.50;;;;;;;11.86;80.96;96912.28;29394;226;64009;-57
2022/10/26 00:53:04;;;;;;;0.50;0.50;;;;;;;11.86;80.93;96917.72;29395;248;63009;-57
2022/10/26 00:53:36;;;;;;;0.50;0.50;;;;;;;11.86;81.20;96917.72;29394;240;64009;-58
2022/10/26 00:54:13;;;;;;;0.50;0.50;;;;;;;11.85;81.33;96916.09;29395;242;63009;-57
2022/10/26 00:54:45;;;;;;;0.50;0.50;;;;;;;11.84;81.31;96914.47;29395;235;63005;-57
2022/10/26 00:55:20;;;;;;;0.50;0.50;;;;;;;11.86;81.12;96911.47;29395;292;63009;-57
2022/10/26 00:55:53;;;;;;;0.50;0.50;;;;;;;11.87;81.19;96913.06;29395;318;63004;-57
2022/10/26 00:56:26;;;;;;;0.50;0.50;;;;;;;11.87;80.88;96913.87;29395;212;63009;-56
2022/10/26 00:56:58;;;;;;;0.50;0.50;;;;;;;11.86;81.11;96917.72;29395;274;63004;-64
2022/10/26 00:57:30;;;;;;;0.50;0.50;;;;;;;11.87;81.15;96913.87;29395;232;63009;-57
2022/10/26 00:58:04;;;;;;;0.50;0.50;;;;;;;11.88;80.83;96910.06;29395;215;63004;-57
2022/10/26 00:58:38;;;;;;;0.50;0.50;;;;;;;11.89;80.92;96916.31;29394;211;64014;-58
2022/10/26 00:59:12;;;;;;;0.50;0.50;;;;;;;11.91;80.93;96914.91;29395;210;63005;-58
2022/10/26 00:59:45;;;;;;;0.50;0.50;;;;;;;11.91;80.53;96904.03;29395;210;63009;-57
2022/10/26 01:00:17;;;;;;;0.50;0.50;;;;;;;11.92;80.80;96916.50;29395;206;63005;-56
2022/10/26 01:00:50;;;;;;;0.50;0.50;;;;;;;11.92;80.50;96910.25;29395;274;63009;-56
2022/10/26 01:01:21;;;;;;;0.50;0.50;;;;;;;11.92;80.88;96913.78;29395;218;63005;-56
2022/10/26 01:01:53;;;;;;;0.50;0.50;;;;;;;11.91;80.65;96909.47;29395;216;63009;-58
2022/10/26 01:02:24;;;;;;;0.50;0.50;;;;;;;11.91;80.91;96911.38;29395;206;63005;-57
2022/10/26 01:03:00;;;;;;;0.40;0.40;;;;;;;11.90;80.91;96913.28;29395;198;63009;-57
2022/10/26 01:03:33;;;;;;;0.50;0.50;;;;;;;11.90;81.09;96918.72;29395;196;63004;-58
2022/10/26 01:04:05;;;;;;;0.50;0.50;;;;;;;11.91;80.84;96909.47;29394;217;64013;-57
2022/10/26 01:04:36;;;;;;;0.50;0.50;;;;;;;11.90;80.92;96918.72;29395;225;63004;-57
2022/10/26 01:05:08;;;;;;;0.50;0.50;;;;;;;11.89;80.87;96911.66;29395;298;63009;-57
2022/10/26 01:05:43;;;;;;;0.50;0.50;;;;;;;11.88;81.29;96909.25;29395;202;63004;-58
2022/10/26 01:06:15;;;;;;;0.50;0.50;;;;;;;11.87;80.96;96913.87;29395;209;63024;-57
2022/10/26 01:06:47;;;;;;;0.50;0.50;;;;;;;11.88;81.28;96909.25;29395;230;63005;-57
2022/10/26 01:07:21;;;;;;;0.50;0.50;;;;;;;11.88;80.95;96910.06;29395;228;63009;-58
2022/10/26 01:07:55;;;;;;;0.50;0.50;;;;;;;11.89;81.21;96906.22;29395;197;63005;-57
2022/10/26 01:08:28;;;;;;;0.50;0.50;;;;;;;11.87;81.19;96911.16;29395;206;63009;-67
2022/10/26 01:09:00;;;;;;;0.50;0.50;;;;;;;11.87;81.13;96911.16;29395;217;63005;-57
2022/10/26 01:09:32;;;;;;;0.50;0.50;;;;;;;11.89;80.90;96910.88;29394;220;64013;-58
2022/10/26 01:10:05;;;;;;;0.40;0.40;;;;;;;11.88;81.12;96909.25;29395;236;63005;-58
2022/10/26 01:10:39;;;;;;;0.50;0.50;;;;;;;11.89;81.04;96905.44;29395;234;63010;-58
2022/10/26 01:11:11;;;;;;;0.50;0.50;;;;;;;11.90;81.50;96912.47;29395;229;63004;-56
2022/10/26 01:11:43;;;;;;;0.50;0.50;;;;;;;11.89;81.10;96908.94;29395;256;63028;-58
2022/10/26 01:12:14;;;;;;;0.40;0.40;;;;;;;11.90;81.54;96913.28;29395;272;63004;-57
2022/10/26 01:12:46;;;;;;;0.50;0.50;;;;;;;11.89;81.49;96910.88;29395;234;63008;-57
2022/10/26 01:13:18;;;;;;;0.40;0.40;;;;;;;11.92;81.57;96910.25;29395;232;63004;-58
2022/10/26 01:13:53;;;;;;;0.50;0.50;;;;;;;11.92;81.30;96900.19;29395;224;63009;-58
2022/10/26 01:14:27;;;;;;;0.50;0.50;;;;;;;11.94;81.59;96903.41;29395;286;63005;-56
2022/10/26 01:14:59;;;;;;;0.50;0.50;;;;;;;11.93;81.19;96904.53;29394;235;64014;-65
2022/10/26 01:16:03;;;;;;;0.50;0.50;;;;;;;11.92;81.78;96902.91;29395;247;63005;-58
2022/10/26 01:17:15;;;;;;;0.50;0.50;;;;;;;11.94;81.72;96903.41;29395;205;63009;-58
2022/10/26 01:18:08;;;;;;;0.50;0.50;;;;;;;11.92;81.38;96905.63;29417;267;63004;-57
2022/10/26 01:19:22;;;;;;;0.50;0.50;;;;;;;11.90;81.67;96901.59;29395;211;63009;-57
2022/10/26 01:20:50;;;;;;;0.50;0.50;;;;;;;11.89;82.48;96902.72;29395;232;63004;-57
2022/10/26 01:21:44;;;;;;;0.50;0.50;;;;;;;11.93;82.57;96890.94;29394;212;64009;-56
2022/10/26 01:22:43;;;;;;;0.40;0.40;;;;;;;11.92;82.45;96894.75;29395;216;63008;-58
2022/10/26 01:24:06;;;;;;;0.50;0.50;;;;;;;11.92;82.19;96886.59;29395;245;63009;-57
2022/10/26 01:25:21;;;;;;;0.50;0.50;;;;;;;11.94;82.12;96887.09;29395;209;63015;-57
2022/10/26 01:26:38;;;;;;;0.50;0.50;;;;;;;11.95;81.62;96883.28;29395;222;63009;-58
2022/10/26 01:27:48;;;;;;;0.50;0.50;;;;;;;11.93;81.47;96885.50;29394;250;64008;-58
2022/10/26 01:28:49;;;;;;;0.50;0.50;;;;;;;11.90;81.41;96888.00;29395;259;63009;-57
2022/10/26 01:30:15;;;;;;;0.50;0.50;;;;;;;11.87;81.98;96886.69;29395;250;63005;-57
2022/10/26 01:30:47;;;;;;;0.50;0.50;;;;;;;11.87;81.75;96886.69;29395;211;63009;-58
2022/10/26 01:31:29;;;;;;;0.50;0.50;;;;;;;11.87;82.06;96885.88;29395;232;63005;-58
2022/10/26 01:32:16;;;;;;;0.50;0.50;;;;;;;11.86;81.68;96878.84;29395;222;63009;-57
2022/10/26 01:33:17;;;;;;;0.50;0.50;;;;;;;11.84;81.61;96879.12;29394;225;64009;-58
2022/10/26 01:34:04;;;;;;;0.50;0.50;;;;;;;11.84;81.61;96876.41;29479;209;125009;-62
2022/10/26 01:34:58;;;;;;;0.50;0.50;;;;;;;11.84;81.84;96876.41;29395;215;63004;-57
2022/10/26 01:35:36;;;;;;;0.50;0.50;;;;;;;11.83;81.45;96874.81;29395;240;63009;-65
2022/10/26 01:36:46;;;;;;;0.50;0.50;;;;;;;11.81;81.74;96876.22;29395;221;63005;-57
2022/10/26 01:37:25;;;;;;;0.50;0.50;;;;;;;11.82;81.80;96872.38;29394;219;64001;-57
2022/10/26 01:38:20;;;;;;;0.50;0.50;;;;;;;11.84;81.80;96875.63;29395;260;63005;-57
2022/10/26 01:38:59;;;;;;;0.50;0.50;;;;;;;11.85;81.35;96875.31;29395;205;63009;-57
2022/10/26 01:39:41;;;;;;;0.50;0.50;;;;;;;11.86;81.55;96874.19;29395;202;63007;-58
2022/10/26 01:41:03;;;;;;;0.50;0.50;;;;;;;11.84;81.32;96870.97;29394;197;64013;-57
2022/10/26 01:41:48;;;;;;;0.50;0.50;;;;;;;11.85;81.31;96867.16;29416;199;64009;-57
2022/10/26 01:42:29;;;;;;;0.50;0.50;;;;;;;11.85;81.13;96872.59;29395;226;63008;-57
2022/10/26 01:43:06;;;;;;;0.50;0.50;;;;;;;11.85;81.10;96880.75;29416;226;64009;-56
2022/10/26 01:43:47;;;;;;;0.50;0.50;;;;;;;11.83;81.45;96872.09;29395;203;63009;-57
2022/10/26 01:44:30;;;;;;;0.50;0.50;;;;;;;11.84;81.25;96875.63;29417;202;63005;-56
2022/10/26 01:45:07;;;;;;;0.50;0.50;;;;;;;11.85;81.36;96882.66;29395;267;63009;-57
2022/10/26 01:45:44;;;;;;;0.50;0.50;;;;;;;11.84;81.78;96875.63;29395;206;63005;-57
2022/10/26 01:46:17;;;;;;;0.50;0.50;;;;;;;11.83;82.63;96877.53;29394;214;64013;-57
2022/10/26 01:46:51;;;;;;;0.50;0.50;;;;;;;11.83;83.13;96880.25;29395;233;63005;-57
2022/10/26 01:47:25;;;;;;;0.50;0.50;;;;;;;11.82;83.33;96878.63;29395;197;63013;-57
2022/10/26 01:47:58;;;;;;;0.50;0.50;;;;;;;11.82;83.56;96873.19;29395;222;63004;-58
2022/10/26 01:48:30;;;;;;;0.50;0.50;;;;;;;11.82;82.74;96878.63;29395;250;63016;-58
2022/10/26 01:49:09;;;;;;;0.50;0.50;;;;;;;11.83;83.01;96874.81;29394;202;64009;-57
2022/10/26 01:49:52;;;;;;;0.50;0.50;;;;;;;11.86;82.86;96874.19;29395;238;63013;-56
2022/10/26 01:50:25;;;;;;;0.50;0.50;;;;;;;11.86;82.66;96879.66;29395;209;63004;-57
2022/10/26 01:50:57;;;;;;;0.50;0.50;;;;;;;11.87;82.41;96878.53;29394;265;64014;-57
2022/10/26 01:51:31;;;;;;;0.50;0.50;;;;;;;11.87;82.75;96883.16;29395;212;63005;-57
2022/10/26 01:52:02;;;;;;;0.50;0.50;;;;;;;11.85;82.65;96891.63;29395;220;63009;-58
2022/10/26 01:52:33;;;;;;;0.50;0.50;;;;;;;11.85;82.92;96888.91;29395;242;63005;-57
2022/10/26 01:53:05;;;;;;;0.45;0.45;;;;;;;11.85;83.27;96883.47;29394;202;64013;-57
2022/10/26 01:53:44;;;;;;;0.50;0.50;;;;;;;11.85;84.37;96888.91;29395;199;63005;-56
2022/10/26 01:54:17;;;;;;;0.50;0.50;;;;;;;11.84;85.96;96894.62;29395;233;63009;-57
2022/10/26 01:54:48;;;;;;;0.50;0.50;;;;;;;11.82;85.39;96894.13;29395;248;63004;-57
2022/10/26 01:55:59;;;;;;;0.50;0.50;;;;;;;11.80;84.83;96889.00;29395;226;63009;-57
2022/10/26 01:56:39;;;;;;;0.50;0.50;;;;;;;11.80;85.09;96883.56;29394;247;64009;-57
2022/10/26 01:57:15;;;;;;;0.50;0.50;;;;;;;11.83;84.86;96884.88;29395;225;63009;-56
2022/10/26 01:57:51;;;;;;;0.50;0.50;;;;;;;11.84;85.21;96875.63;29395;208;63004;-57
2022/10/26 01:59:11;;;;;;;0.50;0.50;;;;;;;11.82;85.14;96872.38;29395;247;63009;-56
2022/10/26 02:00:06;;;;;;;0.50;0.50;;;;;;;11.79;85.33;96873.78;29395;210;63011;-56
2022/10/26 02:00:49;;;;;;;0.50;0.50;;;;;;;11.78;85.18;96866.78;29395;195;63016;-57
2022/10/26 02:02:08;;;;;;;0.50;0.50;;;;;;;11.78;85.43;96874.13;29394;306;64013;-57
2022/10/26 02:03:22;;;;;;;0.50;0.50;;;;;;;11.74;86.15;96887.47;29395;255;63004;-56
2022/10/26 02:04:24;;;;;;;0.50;0.50;;;;;;;11.71;86.29;96886.16;29395;212;63009;-57
2022/10/26 02:05:28;;;;;;;0.50;0.50;;;;;;;11.70;86.37;96881.03;29416;216;64008;-57
2022/10/26 02:06:28;;;;;;;0.50;0.50;;;;;;;11.68;86.47;96869.63;29395;228;63017;-57
2022/10/26 02:07:53;;;;;;;0.50;0.50;;;;;;;11.67;86.46;96860.69;29395;220;63009;-56
2022/10/26 02:09:02;;;;;;;0.50;0.50;;;;;;;11.66;86.36;96852.81;29395;239;63005;-57
2022/10/26 02:10:23;;;;;;;0.50;0.50;;;;;;;11.67;85.15;96854.44;29395;212;63009;-56
2022/10/26 02:11:31;;;;;;;0.50;0.50;;;;;;;11.71;84.49;96855.44;29394;199;64009;-58
2022/10/26 02:12:10;;;;;;;0.50;0.50;;;;;;;11.71;84.43;96853.53;29395;228;63009;-56
2022/10/26 02:13:34;;;;;;;0.50;0.50;;;;;;;11.73;84.06;96855.97;29395;250;63004;-57
2022/10/26 02:14:35;;;;;;;0.50;0.50;;;;;;;11.73;84.27;96848.62;29395;241;63009;-57
2022/10/26 02:15:22;;;;;;;0.45;0.45;;;;;;;11.75;84.26;96845.59;29395;250;63005;-57
2022/10/26 02:16:23;;;;;;;0.50;0.50;;;;;;;11.77;84.23;96846.13;29395;247;63009;-56
2022/10/26 02:16:57;;;;;;;0.50;0.50;;;;;;;11.78;84.45;96844.22;29438;224;64009;-58
2022/10/26 02:17:50;;;;;;;0.50;0.50;;;;;;;11.78;84.26;96841.50;29373;220;63009;-57
2022/10/26 02:18:46;;;;;;;0.50;0.50;;;;;;;11.80;84.14;96847.41;29395;226;63004;-56
2022/10/26 02:19:33;;;;;;;0.50;0.50;;;;;;;11.79;83.81;96846.59;29395;220;63008;-56
2022/10/26 02:20:08;;;;;;;0.50;0.50;;;;;;;11.78;84.05;96852.38;29395;210;63004;-58
2022/10/26 02:20:48;;;;;;;0.50;0.50;;;;;;;11.77;84.07;96846.13;29395;255;63008;-57
2022/10/26 02:21:26;;;;;;;0.50;0.50;;;;;;;11.77;83.97;96853.47;29417;237;63005;-57
2022/10/26 02:22:25;;;;;;;0.50;0.50;;;;;;;11.76;84.62;96858.09;29371;198;64013;-57
2022/10/26 02:23:00;;;;;;;0.50;0.50;;;;;;;11.76;84.46;96855.34;29395;215;63008;-58
2022/10/26 02:23:35;;;;;;;0.50;0.50;;;;;;;11.76;84.11;96860.81;29395;245;63026;-57
2022/10/26 02:24:10;;;;;;;0.50;0.50;;;;;;;11.75;84.24;96861.91;29395;224;63004;-57
2022/10/26 02:24:42;;;;;;;0.50;0.50;;;;;;;11.75;84.51;96861.91;29395;226;63009;-57
2022/10/26 02:25:21;;;;;;;0.50;0.50;;;;;;;11.75;84.37;96867.34;29395;245;63004;-56
2022/10/26 02:25:58;;;;;;;0.50;0.50;;;;;;;11.76;84.39;96866.22;29395;198;63009;-58
2022/10/26 02:26:32;;;;;;;0.50;0.50;;;;;;;11.77;84.24;96865.16;29395;212;63009;-57
2022/10/26 02:27:07;;;;;;;0.50;0.50;;;;;;;11.79;83.93;96864.84;29394;252;64013;-57
2022/10/26 02:27:44;;;;;;;0.50;0.50;;;;;;;11.85;83.48;96864.44;29395;276;63005;-57
2022/10/26 02:28:22;;;;;;;0.50;0.50;;;;;;;11.86;82.92;96868.78;29395;216;63018;-58
2022/10/26 02:28:57;;;;;;;0.50;0.50;;;;;;;11.87;82.51;96861.41;29395;273;63017;-57
2022/10/26 02:29:30;;;;;;;0.50;0.50;;;;;;;11.85;82.55;96872.59;29395;273;63016;-57
2022/10/26 02:30:04;;;;;;;0.50;0.50;;;;;;;11.84;82.89;96870.97;29395;197;63018;-59
2022/10/26 02:30:38;;;;;;;0.50;0.50;;;;;;;11.86;82.79;96857.91;29395;207;63017;-58
2022/10/26 02:31:13;;;;;;;0.52;0.52;;;;;;;11.86;83.03;96868.78;29395;215;63005;-57
2022/10/26 02:31:48;;;;;;;0.50;0.50;;;;;;;11.86;82.86;96868.78;29395;273;63009;-56
2022/10/26 02:32:24;;;;;;;0.50;0.50;;;;;;;11.85;82.83;96869.88;29394;216;64009;-56
2022/10/26 02:32:58;;;;;;;0.50;0.50;;;;;;;11.84;82.97;96870.97;29395;236;63009;-57
2022/10/26 02:33:35;;;;;;;0.50;0.50;;;;;;;11.84;83.11;96876.41;29395;260;63004;-59
2022/10/26 02:34:12;;;;;;;0.50;0.50;;;;;;;11.83;83.15;96869.37;29395;216;63008;-57
2022/10/26 02:34:46;;;;;;;0.50;0.50;;;;;;;11.84;83.36;96881.06;29395;242;63004;-57
2022/10/26 02:35:24;;;;;;;0.50;0.50;;;;;;;11.83;83.46;96884.88;29395;202;63009;-57
2022/10/26 02:36:01;;;;;;;0.50;0.50;;;;;;;11.81;83.63;96876.22;29395;316;63005;-57
2022/10/26 02:36:38;;;;;;;0.50;0.50;;;;;;;11.79;83.94;96878.41;29394;224;64014;-57
2022/10/26 02:37:14;;;;;;;0.50;0.50;;;;;;;11.77;84.01;96881.47;29395;215;63005;-57
2022/10/26 02:37:48;;;;;;;0.50;0.50;;;;;;;11.77;84.18;96883.37;29395;204;63009;-56
2022/10/26 02:38:22;;;;;;;0.50;0.50;;;;;;;11.76;84.36;96885.25;29395;204;63005;-57
2022/10/26 02:38:54;;;;;;;0.50;0.50;;;;;;;11.76;84.25;96882.53;29395;261;63017;-65
2022/10/26 02:39:31;;;;;;;0.50;0.50;;;;;;;11.77;84.53;96881.47;29395;232;63017;-58
2022/10/26 02:40:10;;;;;;;0.50;0.50;;;;;;;11.77;84.22;96884.19;29395;208;63009;-57
2022/10/26 02:40:42;;;;;;;0.50;0.50;;;;;;;11.76;84.50;96885.25;29395;317;63004;-56
2022/10/26 02:41:16;;;;;;;0.50;0.50;;;;;;;11.77;84.13;96876.03;29395;239;63009;-67
2022/10/26 02:41:49;;;;;;;0.50;0.50;;;;;;;11.77;84.47;96889.63;29394;207;64008;-58
2022/10/26 02:42:24;;;;;;;0.50;0.50;;;;;;;11.77;84.32;96883.37;29395;215;63008;-58
2022/10/26 02:42:59;;;;;;;0.50;0.50;;;;;;;11.80;84.37;96891.72;29395;221;63005;-58
2022/10/26 02:43:40;;;;;;;0.50;0.50;;;;;;;11.83;83.97;96880.25;29394;307;64014;-57
2022/10/26 02:44:20;;;;;;;0.50;0.50;;;;;;;11.84;84.22;96876.41;29395;232;63005;-57
2022/10/26 02:44:56;;;;;;;0.50;0.50;;;;;;;11.83;83.97;96884.88;29417;197;63009;-57
2022/10/26 02:45:34;;;;;;;0.50;0.50;;;;;;;11.81;84.22;96878.94;29395;197;63005;-56
2022/10/26 02:46:09;;;;;;;0.50;0.50;;;;;;;11.79;84.17;96876.50;29395;250;63009;-56
2022/10/26 02:46:43;;;;;;;0.50;0.50;;;;;;;11.78;84.30;96880.38;29395;232;63005;-57
2022/10/26 02:47:16;;;;;;;0.50;0.50;;;;;;;11.75;84.31;96884.47;29395;231;63009;-56
2022/10/26 02:47:49;;;;;;;0.50;0.50;;;;;;;11.75;84.71;96880.94;29394;204;64009;-57
2022/10/26 02:48:21;;;;;;;0.50;0.50;;;;;;;11.74;84.94;96882.03;29394;250;64013;-57
2022/10/26 02:48:55;;;;;;;0.50;0.50;;;;;;;11.72;84.78;96886.97;29395;196;63008;-57
2022/10/26 02:49:27;;;;;;;0.50;0.50;;;;;;;11.73;85.02;96885.84;29395;202;63008;-66
2022/10/26 02:49:59;;;;;;;0.50;0.50;;;;;;;11.71;85.17;96883.44;29395;242;63015;-58
2022/10/26 02:50:59;;;;;;;0.50;0.50;;;;;;;11.71;84.86;96877.19;29394;222;64014;-57
2022/10/26 02:51:45;;;;;;;0.50;0.50;;;;;;;11.73;84.92;96875.00;29395;212;63005;-56
2022/10/26 02:52:41;;;;;;;0.50;0.50;;;;;;;11.72;84.97;96873.38;29395;225;63009;-57
2022/10/26 02:53:31;;;;;;;0.50;0.50;;;;;;;11.70;85.17;96881.03;29395;210;63005;-56
2022/10/26 02:54:34;;;;;;;0.50;0.50;;;;;;;11.68;84.96;96875.87;29395;260;63009;-56
2022/10/26 02:55:23;;;;;;;0.50;0.50;;;;;;;11.67;86.33;96881.63;29395;241;63009;-56
2022/10/26 02:55:55;;;;;;;0.50;0.50;;;;;;;11.65;85.99;96884.63;29394;219;64009;-57
2022/10/26 02:56:42;;;;;;;0.50;0.50;;;;;;;11.65;85.96;96889.25;29395;263;63009;-56
2022/10/26 02:57:24;;;;;;;0.50;0.50;;;;;;;11.65;85.81;96886.53;29394;239;64008;-57
2022/10/26 02:58:01;;;;;;;0.50;0.50;;;;;;;11.64;85.91;96883.03;29395;197;63009;-56
2022/10/26 02:58:38;;;;;;;0.50;0.50;;;;;;;11.65;86.44;96883.81;29394;209;64009;-57
2022/10/26 02:59:12;;;;;;;0.50;0.50;;;;;;;11.65;86.29;96892.78;29395;203;63009;-56
2022/10/26 02:59:46;;;;;;;0.50;0.50;;;;;;;11.66;85.97;96885.44;29395;239;63005;-58
2022/10/26 03:00:19;;;;;;;0.50;0.50;;;;;;;11.66;86.11;96888.16;29395;236;63009;-57
2022/10/26 03:00:55;;;;;;;0.50;0.50;;;;;;;11.67;86.08;96887.06;29395;202;63010;-57
2022/10/26 03:01:28;;;;;;;0.50;0.50;;;;;;;11.67;85.80;96887.06;29395;212;63009;-57
2022/10/26 03:02:00;;;;;;;0.50;0.50;;;;;;;11.67;85.72;96887.84;29394;247;64009;-57
2022/10/26 03:02:31;;;;;;;0.50;0.50;;;;;;;11.68;85.94;96888.66;29394;207;64013;-57
2022/10/26 03:03:06;;;;;;;0.50;0.50;;;;;;;11.68;86.12;96894.09;29395;232;63004;-57
2022/10/26 03:03:37;;;;;;;0.50;0.50;;;;;;;11.67;85.86;96887.06;29395;218;63009;-57
2022/10/26 03:04:09;;;;;;;0.50;0.50;;;;;;;11.67;86.13;96893.28;29395;230;63004;-57
2022/10/26 03:04:40;;;;;;;0.50;0.50;;;;;;;11.69;85.71;96893.00;29395;210;63008;-57
2022/10/26 03:05:38;;;;;;;0.50;0.50;;;;;;;11.69;86.82;96891.09;29395;221;63005;-57
2022/10/26 03:06:09;;;;;;;0.50;0.50;;;;;;;11.69;86.83;96890.28;29395;240;63009;-57
2022/10/26 03:06:42;;;;;;;0.50;0.50;;;;;;;11.69;86.47;96898.44;29395;236;63005;-57
2022/10/26 03:07:23;;;;;;;0.50;0.50;;;;;;;11.70;86.56;96897.34;29394;213;64013;-56